Time;durP1;ratioP1;P1;durP2;ratioP2;P2;SDS_P1;SDS_P2;PMS_P1;PMS_P2;Temp;Humidity;BMP_temperature;BMP_pressure;BME280_temperature;BME280_humidity;BME280_pressure;Samples;Min_cycle;Max_cycle;Signal;HPM_P1;HPM_P2
2022/01/28 00:00:35;;;;;;;13.93;7.60;;;;;;;2.28;70.24;99850.05;1711216;80;21097;-52
2022/01/28 00:03:08;;;;;;;15.43;8.60;;;;;;;2.24;70.23;99846.78;1732229;81;21194;-53
2022/01/28 00:05:36;;;;;;;14.25;7.72;;;;;;;2.22;70.29;99853.83;1747994;80;21107;-53
2022/01/28 00:08:05;;;;;;;15.60;8.50;;;;;;;2.18;70.34;99848.41;1756210;80;21007;-54
2022/01/28 00:10:34;;;;;;;13.32;7.97;;;;;;;2.16;70.40;99844.59;1758548;80;21046;-54
2022/01/28 00:39:45;;;;;;;15.15;8.95;;;;;;;2.38;69.37;99804.01;1767425;80;20993;-54
2022/01/28 00:42:12;;;;;;;15.23;9.08;;;;;;;2.39;69.23;99800.50;1767687;80;21039;-54
2022/01/28 00:44:38;;;;;;;15.45;8.93;;;;;;;2.38;69.26;99798.81;1722167;82;21039;-54
2022/01/28 00:47:05;;;;;;;16.52;8.85;;;;;;;2.40;69.17;99798.30;1681328;83;21086;-55
2022/01/28 00:49:32;;;;;;;19.42;9.78;;;;;;;2.40;69.17;99784.45;1702216;83;21140;-54
2022/01/28 00:51:59;;;;;;;15.93;8.25;;;;;;;2.39;69.18;99778.91;1670086;84;21095;-54
2022/01/28 00:54:25;;;;;;;16.00;8.38;;;;;;;2.37;69.25;99775.53;1689860;84;21107;-54
2022/01/28 00:56:52;;;;;;;14.50;8.25;;;;;;;2.43;69.25;99772.60;1687135;84;21054;-54
2022/01/28 00:59:18;;;;;;;12.20;7.28;;;;;;;2.54;68.96;99770.69;1701069;83;21060;-53
2022/01/28 01:01:45;;;;;;;17.02;9.08;;;;;;;2.56;68.87;99759.77;1716599;81;21113;-54
2022/01/28 01:04:13;;;;;;;14.13;9.25;;;;;;;2.55;68.71;99762.81;1757888;81;21041;-53
2022/01/28 01:06:40;;;;;;;15.53;8.63;;;;;;;2.51;68.58;99767.81;1724199;81;21242;-53
2022/01/28 01:09:07;;;;;;;15.88;8.50;;;;;;;2.46;68.61;99753.43;1740231;82;21022;-53
2022/01/28 01:11:34;;;;;;;13.35;8.13;;;;;;;2.42;68.64;99750.14;1738943;81;21057;-55
2022/01/28 01:14:01;;;;;;;13.25;8.40;;;;;;;2.40;68.71;99750.26;1741343;80;21053;-54
2022/01/28 01:16:33;;;;;;;14.73;9.78;;;;;;;2.37;68.81;99741.34;1750361;81;21073;-55
2022/01/28 01:19:16;;;;;;;16.45;8.80;;;;;;;2.41;69.40;99732.44;1737709;81;21100;-52
2022/01/28 01:21:37;;;;;;;17.37;9.48;;;;;;;2.50;69.91;99732.84;1739534;81;21063;-53
2022/01/28 01:23:59;;;;;;;16.48;9.23;;;;;;;2.53;70.18;99727.48;1734854;81;21054;-53
2022/01/28 01:26:34;;;;;;;15.68;9.35;;;;;;;2.54;70.56;99726.53;1741857;82;21053;-53
2022/01/28 01:29:01;;;;;;;14.70;8.18;;;;;;;2.52;70.47;99720.16;1740470;82;21521;-54
2022/01/28 01:31:27;;;;;;;15.85;9.43;;;;;;;2.49;70.14;99716.88;1708248;82;21038;-53
2022/01/28 01:34:06;;;;;;;15.38;9.20;;;;;;;2.44;70.40;99713.27;1742494;81;21038;-54
2022/01/28 01:36:23;;;;;;;13.98;8.20;;;;;;;2.41;70.64;99721.22;1739281;82;21007;-53
2022/01/28 01:38:49;;;;;;;13.90;7.85;;;;;;;2.40;70.67;99705.26;1742244;81;21784;-53
2022/01/28 01:41:26;;;;;;;12.10;8.35;;;;;;;2.48;70.47;99698.34;1739902;81;21038;-54
2022/01/28 01:44:00;;;;;;;17.75;8.98;;;;;;;2.53;70.22;99698.44;1738027;81;21137;-53
2022/01/28 01:54:19;;;;;;;12.18;8.83;;;;;;;2.45;70.26;99682.45;1771011;79;21100;-53
2022/01/28 01:56:45;;;;;;;17.42;8.88;;;;;;;2.43;70.53;99678.30;1738872;82;21857;-53
2022/01/28 01:59:11;;;;;;;13.95;7.83;;;;;;;2.38;70.31;99674.19;1763489;79;21089;-54
2022/01/28 02:01:43;;;;;;;13.38;8.48;;;;;;;2.35;70.46;99681.31;1745392;80;21062;-54
2022/01/28 02:04:06;;;;;;;14.15;8.80;;;;;;;2.36;70.50;99668.25;1738894;80;21120;-53
2022/01/28 02:06:33;;;;;;;15.43;9.28;;;;;;;2.38;70.28;99669.46;1771712;80;21118;-53
2022/01/28 02:09:00;;;;;;;25.88;9.18;;;;;;;2.35;70.07;99669.16;1777049;80;21133;-53
2022/01/28 02:11:26;;;;;;;12.25;8.53;;;;;;;2.33;69.97;99669.72;1736275;81;21008;-54
2022/01/28 02:13:53;;;;;;;18.27;9.03;;;;;;;2.28;69.89;99663.13;1704690;83;21154;-53
2022/01/28 02:16:20;;;;;;;15.78;9.00;;;;;;;2.26;70.02;99672.30;1714711;82;21106;-53
2022/01/28 02:18:47;;;;;;;13.80;7.85;;;;;;;2.19;70.24;99664.49;1711612;83;21151;-53
2022/01/28 02:21:16;;;;;;;13.58;8.38;;;;;;;2.17;70.41;99661.12;1685996;83;21177;-53
2022/01/28 02:23:45;;;;;;;14.07;8.88;;;;;;;2.23;70.43;99668.58;1702759;82;21104;-53
2022/01/28 02:26:15;;;;;;;12.80;8.55;;;;;;;2.27;70.33;99654.95;1709616;82;20975;-53
2022/01/28 02:28:44;;;;;;;16.48;8.88;;;;;;;2.33;70.39;99658.03;1737980;81;21433;-53
2022/01/28 02:31:10;;;;;;;14.23;7.37;;;;;;;2.29;70.32;99660.45;1708546;82;21068;-54
2022/01/28 02:33:36;;;;;;;13.78;7.70;;;;;;;2.22;71.00;99666.92;1732678;82;21100;-52
2022/01/28 02:36:06;;;;;;;14.18;8.40;;;;;;;2.16;71.50;99655.11;1704140;83;21062;-53
2022/01/28 02:38:34;;;;;;;12.40;7.47;;;;;;;2.10;71.92;99655.48;1738162;81;21093;-53
2022/01/28 02:41:03;;;;;;;13.40;8.03;;;;;;;2.08;72.06;99653.88;1706038;82;21058;-53
2022/01/28 02:43:37;;;;;;;15.78;7.55;;;;;;;2.08;72.04;99648.69;1708756;83;21035;-53
2022/01/28 02:46:06;;;;;;;13.75;8.50;;;;;;;2.13;71.87;99641.47;1702620;82;21897;-53
2022/01/28 02:48:29;;;;;;;18.12;9.43;;;;;;;2.16;71.65;99641.30;1705821;83;21106;-53
2022/01/28 02:53:29;;;;;;;12.30;8.18;;;;;;;2.11;71.69;99638.13;1738974;80;21590;-57
2022/01/28 02:56:01;;;;;;;12.28;7.40;;;;;;;2.08;71.68;99637.00;1721588;82;21043;-53
2022/01/28 02:58:27;;;;;;;14.98;8.23;;;;;;;2.01;71.82;99634.75;1707038;82;21145;-52
2022/01/28 03:00:56;;;;;;;12.43;7.50;;;;;;;2.01;71.81;99634.75;1734111;81;21072;-52
2022/01/28 03:03:23;;;;;;;12.80;7.72;;;;;;;2.06;71.75;99625.41;1737674;82;21543;-52
2022/01/28 03:05:51;;;;;;;17.10;8.03;;;;;;;2.13;71.72;99634.98;1735742;82;21059;-52
2022/01/28 03:08:18;;;;;;;12.37;6.70;;;;;;;2.11;71.69;99625.98;1730141;80;21603;-53
2022/01/28 03:13:45;;;;;;;14.83;8.08;;;;;;;2.08;71.68;99621.44;1682907;81;21063;-52
2022/01/28 03:16:10;;;;;;;13.40;7.35;;;;;;;2.09;71.71;99619.23;1743758;82;21067;-53
2022/01/28 03:18:49;;;;;;;13.38;7.30;;;;;;;2.04;71.67;99616.42;1738932;80;21105;-54
2022/01/28 03:21:25;;;;;;;15.65;8.00;;;;;;;2.07;71.75;99623.64;1732881;80;20980;-53
2022/01/28 03:23:46;;;;;;;12.93;7.50;;;;;;;2.13;71.61;99617.64;1737092;82;21852;-53
2022/01/28 03:26:14;;;;;;;13.43;6.97;;;;;;;2.15;71.58;99618.86;1735687;81;21692;-53
2022/01/28 03:28:40;;;;;;;13.00;7.72;;;;;;;2.15;71.65;99621.45;1743923;81;22213;-54
2022/01/28 03:31:06;;;;;;;12.98;7.53;;;;;;;2.14;71.66;99616.73;1702729;82;21557;-54
2022/01/28 03:33:34;;;;;;;12.80;7.15;;;;;;;2.13;71.76;99611.63;1702306;83;21833;-54
2022/01/28 03:36:06;;;;;;;13.28;7.40;;;;;;;2.12;71.61;99611.23;1743141;81;21245;-53
2022/01/28 03:38:32;;;;;;;12.73;6.97;;;;;;;2.10;71.56;99608.77;1707036;83;21105;-53
2022/01/28 03:40:59;;;;;;;10.93;6.97;;;;;;;2.15;71.46;99614.52;1737396;81;21547;-54
2022/01/28 03:43:25;;;;;;;10.50;6.33;;;;;;;2.19;71.26;99606.92;1713495;83;21039;-53
2022/01/28 03:45:51;;;;;;;11.40;6.33;;;;;;;2.20;71.27;99599.52;1688817;82;21073;-54
2022/01/28 03:48:18;;;;;;;12.93;7.35;;;;;;;2.19;71.29;99608.69;1680329;83;22407;-55
2022/01/28 03:50:44;;;;;;;13.58;7.05;;;;;;;2.16;71.32;99604.50;1711923;82;21073;-54
2022/01/28 03:53:12;;;;;;;15.35;7.30;;;;;;;2.13;71.35;99594.28;1683796;82;21491;-53
2022/01/28 03:55:39;;;;;;;10.80;6.28;;;;;;;2.12;71.38;99601.72;1709825;82;21106;-53
2022/01/28 03:58:05;;;;;;;11.48;7.33;;;;;;;2.15;71.33;99592.46;1698414;82;21158;-54
2022/01/28 04:00:33;;;;;;;11.60;6.70;;;;;;;2.21;71.14;99580.88;1681505;82;21135;-54
2022/01/28 04:03:36;;;;;;;14.13;6.87;;;;;;;2.28;71.06;99588.67;1692563;83;21052;-53
2022/01/28 04:13:45;;;;;;;11.18;6.50;;;;;;;2.13;71.30;99581.78;1710045;83;21145;-54
2022/01/28 04:18:49;;;;;;;11.90;6.60;;;;;;;2.03;71.45;99578.44;1713321;81;21134;-54
2022/01/28 04:21:15;;;;;;;12.10;5.97;;;;;;;2.10;71.36;99570.27;1712342;82;21086;-55
2022/01/28 04:23:42;;;;;;;11.45;6.00;;;;;;;2.13;71.41;99581.31;1714129;82;21027;-55
2022/01/28 04:26:08;;;;;;;13.10;6.25;;;;;;;2.14;71.41;99571.78;1712642;82;21048;-55
2022/01/28 04:28:35;;;;;;;11.80;6.35;;;;;;;2.08;71.59;99574.25;1715850;82;21099;-54
2022/01/28 04:31:02;;;;;;;10.75;6.37;;;;;;;2.03;71.75;99574.54;1716471;82;21731;-55
2022/01/28 04:33:29;;;;;;;10.03;5.85;;;;;;;1.98;71.70;99577.83;1710316;82;21102;-55
2022/01/28 04:35:56;;;;;;;11.65;5.97;;;;;;;1.95;71.84;99572.84;1690544;82;21702;-57
2022/01/28 04:41:06;;;;;;;10.48;6.55;;;;;;;2.09;71.52;99577.23;1707098;82;21537;-55
2022/01/28 04:43:29;;;;;;;9.53;4.72;;;;;;;2.09;71.56;99569.45;1715142;82;21142;-59
2022/01/28 04:46:37;;;;;;;11.00;6.33;;;;;;;2.11;71.55;99571.95;1707034;81;21027;-55
2022/01/28 04:48:27;;;;;;;10.82;6.42;;;;;;;2.11;71.48;99563.70;1698390;83;21082;-55
2022/01/28 04:53:51;;;;;;;14.03;7.00;;;;;;;2.07;71.36;99576.49;1752067;79;21134;-55
2022/01/28 05:01:54;;;;;;;10.68;5.78;;;;;;;2.25;71.03;99568.55;1761613;79;20991;-55
2022/01/28 05:04:11;;;;;;;11.60;5.83;;;;;;;2.26;70.96;99563.27;1749017;80;21067;-56
2022/01/28 05:17:19;;;;;;;8.38;4.78;;;;;;;2.16;70.87;99555.66;1754908;80;21476;-55
2022/01/28 05:27:26;;;;;;;9.58;5.53;;;;;;;2.28;70.70;99550.20;1743210;80;21062;-55
2022/01/28 05:29:52;;;;;;;10.25;5.30;;;;;;;2.28;70.71;99552.80;1744481;80;21841;-57
2022/01/28 05:32:18;;;;;;;9.45;5.35;;;;;;;2.27;70.58;99540.73;1762901;79;21710;-55
2022/01/28 05:34:44;;;;;;;8.95;5.55;;;;;;;2.25;70.61;99539.99;1760436;80;21395;-56
2022/01/28 05:37:11;;;;;;;9.03;5.55;;;;;;;2.27;70.54;99548.08;1735790;80;21628;-56
2022/01/28 05:39:37;;;;;;;11.10;5.08;;;;;;;2.36;70.27;99550.59;1759298;80;21574;-57
2022/01/28 05:42:05;;;;;;;8.60;5.25;;;;;;;2.42;70.12;99557.99;1756924;80;21758;-56
2022/01/28 05:44:31;;;;;;;9.88;5.25;;;;;;;2.43;70.07;99554.48;1758271;79;21514;-57
2022/01/28 05:47:02;;;;;;;11.22;5.10;;;;;;;2.41;70.05;99544.19;1734739;80;21565;-57
2022/01/28 05:49:26;;;;;;;10.80;5.00;;;;;;;2.38;70.11;99550.85;1755861;80;21073;-56
2022/01/28 05:51:54;;;;;;;11.28;5.90;;;;;;;2.37;70.20;99552.23;1757162;79;21112;-57
2022/01/28 05:54:20;;;;;;;11.73;6.17;;;;;;;2.37;70.15;99552.23;1761150;80;21268;-59
2022/01/28 05:56:46;;;;;;;8.63;4.62;;;;;;;2.35;70.15;99535.45;1762625;80;21145;-58
2022/01/28 05:59:13;;;;;;;9.53;5.45;;;;;;;2.44;70.05;99540.58;1752435;80;21047;-56
2022/01/28 06:01:39;;;;;;;10.40;4.95;;;;;;;2.54;69.81;99541.70;1756878;80;21078;-56
2022/01/28 06:04:06;;;;;;;11.12;5.85;;;;;;;2.61;69.73;99549.95;1758059;80;21612;-55
2022/01/28 06:06:33;;;;;;;8.55;5.40;;;;;;;2.61;69.63;99546.06;1751454;79;22446;-56
2022/01/28 06:08:59;;;;;;;10.75;5.40;;;;;;;2.59;69.61;99544.03;1756798;79;21702;-55
2022/01/28 06:11:26;;;;;;;10.40;5.10;;;;;;;2.57;69.68;99547.16;1751511;79;21565;-54
2022/01/28 06:13:52;;;;;;;10.82;5.80;;;;;;;2.54;69.72;99547.34;1729411;81;21577;-54
2022/01/28 06:16:19;;;;;;;10.38;5.42;;;;;;;2.54;69.77;99557.72;1764318;79;22502;-53
2022/01/28 06:18:46;;;;;;;9.18;4.53;;;;;;;2.52;69.73;99544.00;1753133;79;21943;-53
2022/01/28 06:21:12;;;;;;;9.65;4.97;;;;;;;2.55;69.69;99543.82;1750963;79;21082;-53
2022/01/28 06:23:40;;;;;;;11.68;5.45;;;;;;;2.61;69.50;99542.16;1697416;83;21083;-55
2022/01/28 06:26:06;;;;;;;9.65;5.72;;;;;;;2.66;69.49;99537.52;1682217;83;21259;-55
2022/01/28 06:28:33;;;;;;;10.65;5.42;;;;;;;2.64;69.51;99531.59;1718478;83;21137;-55
2022/01/28 06:31:00;;;;;;;10.50;5.25;;;;;;;2.60;69.58;99545.20;1697481;82;21141;-55
2022/01/28 06:33:26;;;;;;;11.28;5.60;;;;;;;2.59;69.62;99545.33;1738627;79;21027;-55
2022/01/28 06:35:53;;;;;;;10.55;5.58;;;;;;;2.56;69.72;99545.03;1700258;82;21086;-55
2022/01/28 06:38:19;;;;;;;9.08;5.10;;;;;;;2.55;69.74;99539.92;1708973;82;21133;-55
2022/01/28 06:40:45;;;;;;;9.98;5.17;;;;;;;2.53;69.82;99539.19;1734146;81;21078;-55
2022/01/28 06:43:15;;;;;;;11.53;5.37;;;;;;;2.62;69.72;99549.48;1754873;81;21070;-56
2022/01/28 06:45:43;;;;;;;9.53;4.30;;;;;;;2.68;69.60;99546.05;1759827;79;21062;-55
2022/01/28 06:48:10;;;;;;;11.45;5.95;;;;;;;2.74;69.54;99552.18;1757457;79;21097;-54
2022/01/28 06:50:39;;;;;;;12.07;5.53;;;;;;;2.77;69.58;99556.34;1759000;80;21055;-55
2022/01/28 06:53:07;;;;;;;11.15;6.10;;;;;;;2.81;69.49;99553.09;1756339;79;21698;-55
2022/01/28 06:55:33;;;;;;;13.00;5.95;;;;;;;2.79;69.43;99543.64;1763353;79;21260;-55
2022/01/28 06:58:00;;;;;;;10.95;6.33;;;;;;;2.79;69.44;99537.59;1767134;79;21561;-54
2022/01/28 07:00:26;;;;;;;10.08;5.22;;;;;;;2.79;69.34;99542.34;1759023;80;21620;-55
2022/01/28 07:02:54;;;;;;;9.43;4.97;;;;;;;2.76;69.30;99543.83;1770456;79;21042;-56
2022/01/28 07:05:20;;;;;;;10.68;4.53;;;;;;;2.78;69.33;99548.45;1773178;79;21117;-56
2022/01/28 07:07:47;;;;;;;10.58;5.97;;;;;;;2.88;69.06;99553.93;1763603;79;21102;-56
2022/01/28 07:10:14;;;;;;;7.53;4.75;;;;;;;2.96;68.93;99556.07;1765361;79;21090;-58
2022/01/28 07:12:41;;;;;;;10.28;5.67;;;;;;;3.02;68.87;99556.97;1768538;80;21058;-56
2022/01/28 07:15:09;;;;;;;9.90;5.33;;;;;;;3.03;68.82;99557.35;1732917;82;21207;-56
2022/01/28 07:17:35;;;;;;;10.35;5.60;;;;;;;3.03;68.77;99550.86;1747664;80;21368;-56
2022/01/28 07:20:02;;;;;;;9.48;4.90;;;;;;;3.00;68.61;99548.44;1767969;79;21130;-57
2022/01/28 07:22:29;;;;;;;9.33;4.95;;;;;;;2.96;68.71;99563.39;1765241;79;21063;-55
2022/01/28 07:24:57;;;;;;;10.18;5.17;;;;;;;2.91;68.67;99558.13;1770051;79;21031;-55
2022/01/28 07:27:23;;;;;;;10.43;5.45;;;;;;;2.86;68.84;99562.29;1765529;80;21106;-54
2022/01/28 07:29:50;;;;;;;9.23;5.53;;;;;;;2.82;68.86;99559.49;1763985;80;21112;-55
2022/01/28 07:32:17;;;;;;;12.55;6.05;;;;;;;2.86;68.92;99563.59;1735076;80;22121;-55
2022/01/28 07:34:44;;;;;;;11.22;5.90;;;;;;;2.97;68.72;99557.72;1761423;80;21524;-56
2022/01/28 07:37:11;;;;;;;11.70;5.33;;;;;;;3.06;68.54;99552.41;1766286;80;21457;-55
2022/01/28 07:39:37;;;;;;;11.88;5.90;;;;;;;3.06;68.39;99561.06;1738334;79;21471;-56
2022/01/28 07:42:05;;;;;;;10.75;5.70;;;;;;;3.05;68.33;99558.56;1764910;79;20967;-56
2022/01/28 07:44:32;;;;;;;9.83;5.42;;;;;;;3.02;68.33;99562.64;1733198;80;21066;-54
2022/01/28 07:46:58;;;;;;;11.50;6.05;;;;;;;2.99;68.36;99551.95;1725665;79;21101;-54
2022/01/28 07:49:25;;;;;;;9.98;5.35;;;;;;;3.00;68.45;99555.41;1763527;79;21132;-54
2022/01/28 07:51:51;;;;;;;10.08;6.30;;;;;;;3.01;68.24;99546.67;1733836;80;21043;-54
2022/01/28 07:54:18;;;;;;;10.82;6.00;;;;;;;2.98;68.18;99547.70;1762937;80;21153;-55
2022/01/28 07:56:47;;;;;;;9.18;5.47;;;;;;;3.09;68.15;99552.23;1755757;80;21125;-54
2022/01/28 07:59:13;;;;;;;11.68;6.05;;;;;;;3.21;67.99;99546.28;1741754;80;21660;-55
2022/01/28 08:01:39;;;;;;;9.73;5.58;;;;;;;3.33;67.82;99539.00;1699079;83;21080;-55
2022/01/28 08:04:06;;;;;;;10.00;5.92;;;;;;;3.41;67.52;99534.59;1759399;80;21059;-54
2022/01/28 08:19:38;;;;;;;9.15;5.58;;;;;;;5.07;63.25;99517.87;1938171;72;21782;-57
2022/01/28 08:22:05;;;;;;;11.45;6.35;;;;;;;5.24;62.53;99521.87;1887728;74;21099;-56
2022/01/28 08:24:31;;;;;;;11.68;5.87;;;;;;;5.20;62.42;99516.05;1891151;74;23274;-56
2022/01/28 08:26:58;;;;;;;9.98;5.15;;;;;;;5.13;61.92;99516.96;1884908;74;20948;-56
2022/01/28 08:29:24;;;;;;;11.10;6.05;;;;;;;4.98;61.62;99516.27;1865866;74;21103;-56
2022/01/28 08:31:51;;;;;;;11.08;5.83;;;;;;;4.78;61.88;99511.63;1892175;74;20977;-55
2022/01/28 08:34:17;;;;;;;9.30;5.90;;;;;;;4.64;62.25;99519.94;1887016;74;21027;-55
2022/01/28 08:36:44;;;;;;;10.30;5.15;;;;;;;4.51;62.33;99516.52;1886973;74;21090;-54
2022/01/28 08:39:11;;;;;;;10.38;5.47;;;;;;;4.43;62.65;99518.80;1871405;74;20971;-56
2022/01/28 08:41:40;;;;;;;13.90;6.03;;;;;;;4.35;62.79;99517.19;1886755;75;20941;-56
2022/01/28 08:44:06;;;;;;;8.25;4.60;;;;;;;4.24;63.06;99517.45;1887428;74;21053;-55
2022/01/28 08:46:33;;;;;;;9.50;5.22;;;;;;;4.14;62.87;99529.42;1887564;74;20994;-56
2022/01/28 08:48:59;;;;;;;9.30;4.87;;;;;;;4.02;63.24;99521.14;1875916;75;21230;-56
2022/01/28 08:51:26;;;;;;;7.95;4.53;;;;;;;3.92;63.59;99515.70;1878024;74;20962;-56
2022/01/28 08:53:54;;;;;;;9.78;5.00;;;;;;;3.88;63.90;99525.94;1886719;74;21065;-57
2022/01/28 08:56:21;;;;;;;8.15;4.90;;;;;;;3.95;63.97;99531.57;1871378;75;21070;-57
2022/01/28 08:58:47;;;;;;;11.03;5.22;;;;;;;3.97;63.92;99517.53;1890224;74;21014;-58
2022/01/28 09:01:14;;;;;;;11.15;5.33;;;;;;;3.96;63.93;99521.54;1891003;74;21126;-56
2022/01/28 09:03:41;;;;;;;9.88;5.78;;;;;;;3.96;63.94;99526.74;1889398;74;21051;-57
2022/01/28 09:06:09;;;;;;;10.00;5.12;;;;;;;3.91;63.90;99519.23;1884899;75;21484;-57
2022/01/28 09:08:35;;;;;;;10.68;5.78;;;;;;;3.81;63.92;99516.40;1891771;74;21548;-57
2022/01/28 09:13:49;;;;;;;8.90;5.00;;;;;;;3.67;64.56;99512.11;1888239;74;21142;-56
2022/01/28 09:16:17;;;;;;;8.78;4.47;;;;;;;3.61;64.64;99512.50;1881550;75;20968;-56
2022/01/28 09:18:43;;;;;;;9.05;4.50;;;;;;;3.51;64.73;99507.08;1895054;74;21022;-56
2022/01/28 09:21:09;;;;;;;10.95;5.45;;;;;;;3.47;64.94;99509.97;1887206;74;21534;-57
2022/01/28 09:23:36;;;;;;;8.20;4.58;;;;;;;3.46;65.05;99506.55;1884766;73;21980;-56
2022/01/28 09:26:04;;;;;;;8.33;4.33;;;;;;;3.54;65.03;99504.73;1891729;74;21173;-55
2022/01/28 09:28:30;;;;;;;13.78;5.05;;;;;;;3.61;65.04;99503.39;1883962;74;21063;-56
2022/01/28 09:30:57;;;;;;;9.00;4.85;;;;;;;3.64;65.01;99501.07;1886368;75;21061;-55
2022/01/28 09:33:23;;;;;;;8.68;4.72;;;;;;;3.63;64.89;99503.30;1889766;74;21065;-56
2022/01/28 09:35:50;;;;;;;9.08;5.20;;;;;;;3.61;65.07;99505.99;1879066;75;21050;-56
2022/01/28 09:38:17;;;;;;;9.98;5.35;;;;;;;3.59;64.96;99494.86;1885975;75;21100;-56
2022/01/28 09:40:43;;;;;;;9.80;5.30;;;;;;;3.58;64.94;99493.66;1871789;75;21012;-56
2022/01/28 09:43:10;;;;;;;8.93;4.78;;;;;;;3.60;65.19;99482.23;1888974;74;21002;-57
2022/01/28 09:45:37;;;;;;;8.68;4.97;;;;;;;3.67;65.01;99483.97;1878297;74;21021;-57
2022/01/28 09:48:05;;;;;;;11.38;5.62;;;;;;;3.70;64.84;99466.86;1901449;74;21029;-57
2022/01/28 09:50:32;;;;;;;9.78;5.08;;;;;;;3.74;64.79;99476.11;1884176;75;21017;-56
2022/01/28 09:52:59;;;;;;;9.95;5.15;;;;;;;3.81;64.53;99479.97;1891637;74;20997;-57
2022/01/28 09:55:26;;;;;;;9.10;4.53;;;;;;;3.97;64.44;99465.92;1876506;75;21080;-57
2022/01/28 09:57:56;;;;;;;8.13;5.08;;;;;;;4.04;63.89;99464.12;1879563;75;21033;-57
2022/01/28 10:00:25;;;;;;;12.40;5.05;;;;;;;4.06;63.76;99453.60;1896755;74;21041;-56
2022/01/28 10:03:06;;;;;;;9.58;5.33;;;;;;;4.06;63.90;99455.73;1874991;75;21201;-57
2022/01/28 10:05:39;;;;;;;9.43;5.47;;;;;;;4.10;63.70;99447.23;1878675;75;21012;-56
2022/01/28 10:08:19;;;;;;;8.98;4.37;;;;;;;4.12;63.71;99458.85;1880679;74;21034;-56
2022/01/28 10:11:01;;;;;;;9.40;5.15;;;;;;;4.12;63.74;99453.64;1880642;73;21589;-56
2022/01/28 10:13:37;;;;;;;12.70;5.75;;;;;;;4.18;63.65;99448.84;1889297;73;22184;-57
2022/01/28 10:16:14;;;;;;;9.55;5.90;;;;;;;4.26;63.44;99441.34;1873910;74;21013;-57
2022/01/28 10:18:55;;;;;;;11.48;5.47;;;;;;;4.30;62.83;99441.14;1868057;75;21006;-56
2022/01/28 10:21:39;;;;;;;12.30;5.95;;;;;;;4.26;62.79;99436.14;1884467;74;21546;-58
2022/01/28 10:24:17;;;;;;;12.10;5.67;;;;;;;4.27;62.69;99431.78;1865445;74;21032;-57
2022/01/28 10:26:53;;;;;;;12.50;5.50;;;;;;;4.33;62.70;99435.25;1883553;74;20990;-57
2022/01/28 10:29:33;;;;;;;9.38;5.37;;;;;;;4.48;62.44;99426.84;1876200;74;22319;-57
2022/01/28 10:32:11;;;;;;;9.35;6.00;;;;;;;4.54;62.22;99422.52;1875443;74;21100;-56
2022/01/28 10:34:46;;;;;;;10.75;5.75;;;;;;;4.53;61.91;99423.92;1876845;75;21013;-56
2022/01/28 10:37:24;;;;;;;12.80;5.67;;;;;;;4.48;62.13;99416.42;1889488;74;21029;-57
2022/01/28 10:40:00;;;;;;;11.57;5.65;;;;;;;4.49;62.12;99419.40;1872334;74;21030;-57
2022/01/28 10:42:48;;;;;;;10.00;5.83;;;;;;;4.49;62.02;99406.82;1843126;77;21231;-57
2022/01/28 10:45:15;;;;;;;11.10;5.62;;;;;;;4.50;61.99;99411.11;1845391;75;21021;-57
2022/01/28 10:47:51;;;;;;;11.25;5.83;;;;;;;4.48;62.03;99392.98;1810032;76;21105;-57
2022/01/28 10:50:34;;;;;;;10.95;4.97;;;;;;;4.53;62.15;99399.99;1828086;76;21563;-58
2022/01/28 10:53:08;;;;;;;9.63;5.40;;;;;;;4.60;62.03;99394.70;1807884;77;21801;-58
2022/01/28 10:55:53;;;;;;;11.65;6.33;;;;;;;4.69;61.61;99389.33;1841684;76;21096;-57
2022/01/28 10:58:25;;;;;;;8.98;5.95;;;;;;;4.76;61.52;99391.03;1839296;76;21017;-57
2022/01/28 11:00:57;;;;;;;11.03;5.65;;;;;;;4.75;61.33;99385.44;1847227;76;21010;-57
2022/01/28 11:03:27;;;;;;;9.40;5.58;;;;;;;4.72;61.30;99380.44;1842747;76;21362;-57
2022/01/28 11:05:58;;;;;;;9.10;5.28;;;;;;;4.70;61.12;99390.98;1849156;76;21026;-56
2022/01/28 11:08:31;;;;;;;8.85;5.00;;;;;;;4.65;61.25;99387.39;1838992;76;21133;-57
2022/01/28 11:10:59;;;;;;;10.45;5.47;;;;;;;4.69;61.42;99375.45;1812481;76;21570;-57
2022/01/28 11:13:26;;;;;;;8.78;4.95;;;;;;;4.78;61.12;99369.59;1848502;76;21038;-57
2022/01/28 11:15:53;;;;;;;13.38;5.08;;;;;;;4.86;60.98;99378.99;1837409;76;21299;-57
2022/01/28 11:18:21;;;;;;;9.25;5.03;;;;;;;4.91;61.00;99360.39;1844396;76;21057;-56
2022/01/28 11:20:52;;;;;;;10.23;5.85;;;;;;;4.93;60.54;99359.34;1853122;76;21171;-57
2022/01/28 11:23:51;;;;;;;10.48;5.15;;;;;;;4.94;60.68;99354.50;1824251;76;21011;-58
2022/01/28 11:26:31;;;;;;;9.93;5.92;;;;;;;4.94;60.55;99342.77;1830098;77;21125;-57
2022/01/28 11:29:02;;;;;;;13.03;5.05;;;;;;;4.90;60.78;99345.70;1812577;77;21390;-58
2022/01/28 11:31:48;;;;;;;9.63;4.75;;;;;;;4.87;60.79;99335.02;1835243;76;21603;-57
2022/01/28 11:34:30;;;;;;;9.65;4.90;;;;;;;4.86;60.76;99330.77;1834023;76;21163;-58
2022/01/28 11:36:59;;;;;;;11.85;4.75;;;;;;;4.84;60.76;99334.79;1830282;76;21555;-58
2022/01/28 11:39:33;;;;;;;9.23;5.78;;;;;;;4.88;61.06;99322.84;1823995;76;21073;-59
2022/01/28 11:42:13;;;;;;;9.00;5.50;;;;;;;4.93;61.16;99309.81;1816087;76;21037;-60
2022/01/28 11:44:43;;;;;;;8.45;4.90;;;;;;;5.04;61.02;99333.78;1832106;76;21082;-57
2022/01/28 11:47:24;;;;;;;9.30;4.95;;;;;;;5.15;60.62;99331.70;1839138;76;21068;-57
2022/01/28 11:50:08;;;;;;;9.20;4.80;;;;;;;5.23;60.05;99345.00;1835908;76;20979;-58
2022/01/28 11:52:48;;;;;;;9.60;5.00;;;;;;;5.25;59.76;99322.23;1824205;76;22467;-58
2022/01/28 11:55:28;;;;;;;9.28;5.00;;;;;;;5.31;59.70;99336.59;1845992;75;21041;-58
2022/01/28 11:58:09;;;;;;;8.28;4.85;;;;;;;5.35;59.47;99323.20;1829440;75;21499;-58
2022/01/28 12:00:39;;;;;;;9.70;5.10;;;;;;;5.28;59.21;99316.80;1856976;75;21124;-57
2022/01/28 12:03:31;;;;;;;8.93;5.08;;;;;;;5.17;59.16;99314.98;1854928;75;21168;-57
2022/01/28 12:06:10;;;;;;;14.23;6.00;;;;;;;5.06;59.37;99318.02;1851716;75;21065;-56
2022/01/28 12:08:38;;;;;;;7.75;4.50;;;;;;;4.99;59.46;99320.25;1853283;75;21071;-58
2022/01/28 12:11:07;;;;;;;10.63;5.80;;;;;;;4.88;59.89;99321.05;1824594;75;21706;-57
2022/01/28 12:14:04;;;;;;;10.18;5.15;;;;;;;4.86;59.96;99322.95;1826292;76;22247;-58
2022/01/28 12:16:33;;;;;;;11.50;5.35;;;;;;;4.82;59.99;99321.50;1855457;75;21085;-58
2022/01/28 12:19:01;;;;;;;9.23;4.70;;;;;;;4.77;60.00;99319.70;1824787;76;21097;-58
2022/01/28 12:21:31;;;;;;;7.80;4.70;;;;;;;4.73;60.15;99322.18;1804769;76;21397;-57
2022/01/28 12:24:24;;;;;;;8.83;4.70;;;;;;;4.74;60.15;99318.16;1836640;76;21127;-57
2022/01/28 12:27:09;;;;;;;9.08;3.80;;;;;;;4.74;60.05;99312.09;1829736;76;21173;-58
2022/01/28 12:29:50;;;;;;;9.40;4.87;;;;;;;4.73;60.09;99314.36;1839901;76;21127;-56
2022/01/28 12:32:23;;;;;;;9.10;4.85;;;;;;;4.78;60.08;99313.55;1837913;76;21120;-57
2022/01/28 12:34:50;;;;;;;9.08;4.42;;;;;;;4.90;60.09;99312.64;1836343;76;21429;-57
2022/01/28 12:37:21;;;;;;;8.70;4.28;;;;;;;5.05;59.82;99321.59;1838455;76;21006;-58
2022/01/28 12:39:51;;;;;;;7.12;4.45;;;;;;;5.17;59.30;99324.10;1836271;76;21047;-59
2022/01/28 12:42:26;;;;;;;8.13;4.12;;;;;;;5.26;59.15;99321.30;1835938;76;20930;-56
2022/01/28 12:44:58;;;;;;;7.55;3.67;;;;;;;5.31;58.62;99303.53;1810988;76;21006;-58
2022/01/28 12:47:25;;;;;;;7.92;4.12;;;;;;;5.28;58.56;99316.80;1809880;77;21033;-58
2022/01/28 12:49:56;;;;;;;7.97;4.53;;;;;;;5.18;58.57;99327.08;1836816;76;20960;-58
2022/01/28 12:52:22;;;;;;;7.47;4.03;;;;;;;5.08;58.73;99322.20;1841607;76;21083;-59
2022/01/28 12:54:48;;;;;;;7.30;3.98;;;;;;;4.99;59.08;99312.44;1840921;76;21004;-59
2022/01/28 12:57:19;;;;;;;6.78;3.98;;;;;;;4.92;59.13;99318.56;1812433;76;21017;-58
2022/01/28 12:59:46;;;;;;;7.05;4.00;;;;;;;4.84;59.20;99312.63;1836630;76;20970;-57
2022/01/28 13:02:14;;;;;;;8.10;3.62;;;;;;;4.80;59.24;99306.45;1838193;76;21050;-57
2022/01/28 13:10:22;;;;;;;8.60;3.40;;;;;;;4.58;59.55;99293.67;1839289;76;22402;-58
2022/01/28 13:12:49;;;;;;;7.15;3.15;;;;;;;4.51;59.67;99304.19;1831923;76;22047;-58
2022/01/28 13:15:16;;;;;;;7.92;3.70;;;;;;;4.48;59.76;99299.67;1834910;76;21061;-56
2022/01/28 13:17:58;;;;;;;7.30;4.10;;;;;;;4.45;59.92;99296.80;1808610;76;21116;-56
2022/01/28 13:20:27;;;;;;;7.08;3.45;;;;;;;4.41;59.93;99293.59;1806772;76;21044;-57
2022/01/28 13:22:53;;;;;;;7.10;3.50;;;;;;;4.41;59.80;99296.20;1805067;77;21083;-58
2022/01/28 13:25:22;;;;;;;8.80;4.00;;;;;;;4.37;59.91;99299.13;1837111;76;21457;-56
2022/01/28 13:27:54;;;;;;;11.88;4.03;;;;;;;4.35;59.88;99293.20;1839179;76;21138;-56